createdAt,value
2023-04-29T00:02:32.578Z,3.67
2023-04-29T00:05:34.166Z,3.13
2023-04-29T00:08:35.493Z,3.00
2023-04-29T00:11:36.789Z,3.78
2023-04-29T00:14:38.564Z,4.10
2023-04-29T00:17:39.816Z,3.97
2023-04-29T00:20:41.114Z,4.07
2023-04-29T00:23:42.400Z,3.50
2023-04-29T00:26:43.756Z,3.28
2023-04-29T00:29:45.006Z,3.25
2023-04-29T00:32:46.638Z,3.00
2023-04-29T00:35:48.174Z,4.03
2023-04-29T00:38:49.411Z,3.22
2023-04-29T00:41:50.731Z,3.17
2023-04-29T00:44:52.160Z,3.08
2023-04-29T00:47:53.523Z,3.05
2023-04-29T00:50:54.864Z,3.10
2023-04-29T00:53:56.282Z,3.13
2023-04-29T00:56:59.278Z,3.53
2023-04-29T01:00:00.656Z,2.25
2023-04-29T01:03:02.083Z,3.97
2023-04-29T01:06:22.414Z,2.88
2023-04-29T01:09:43.716Z,3.15
2023-04-29T01:12:46.761Z,3.88
2023-04-29T01:16:10.600Z,3.70
2023-04-29T01:19:16.803Z,4.05
2023-04-29T01:22:18.854Z,2.78
2023-04-29T01:25:20.131Z,2.80
2023-04-29T01:28:21.671Z,2.63
2023-04-29T01:31:52.629Z,3.83
2023-04-29T01:35:07.002Z,2.60
2023-04-29T01:38:22.730Z,3.13
2023-04-29T01:41:43.549Z,3.00
2023-04-29T01:44:45.336Z,3.17
2023-04-29T01:47:47.140Z,2.95
2023-04-29T01:50:48.496Z,4.00
2023-04-29T01:53:49.762Z,2.67
2023-04-29T01:56:52.152Z,3.20
2023-04-29T01:59:53.622Z,3.25
2023-04-29T02:02:55.160Z,3.28
2023-04-29T02:05:57.576Z,3.38
2023-04-29T02:08:58.914Z,3.25
2023-04-29T02:12:00.649Z,3.72
2023-04-29T02:15:02.176Z,4.40
2023-04-29T02:18:03.572Z,3.13
2023-04-29T02:21:05.335Z,3.13
2023-04-29T02:24:07.058Z,3.55
2023-04-29T02:27:08.342Z,3.10
2023-04-29T02:30:09.788Z,3.30
2023-04-29T02:33:11.278Z,3.40
2023-04-29T02:36:12.572Z,3.60
2023-04-29T02:39:13.820Z,3.40
2023-04-29T02:42:15.110Z,3.35
2023-04-29T02:45:16.403Z,3.17
2023-04-29T02:48:18.054Z,2.92
2023-04-29T02:51:19.846Z,4.15
2023-04-29T02:54:21.535Z,3.10
2023-04-29T02:57:22.800Z,4.05
2023-04-29T03:00:24.147Z,3.47
2023-04-29T03:03:25.671Z,2.78
2023-04-29T03:06:27.788Z,3.10
2023-04-29T03:09:29.104Z,3.05
2023-04-29T03:12:30.438Z,3.05
2023-04-29T03:15:31.757Z,3.47
2023-04-29T03:18:33.028Z,3.38
2023-04-29T03:21:34.336Z,3.55
2023-04-29T03:24:35.718Z,3.17
2023-04-29T03:27:37.070Z,2.92
2023-04-29T03:30:38.378Z,3.80
2023-04-29T03:33:39.759Z,2.38
2023-04-29T03:36:41.077Z,2.58
2023-04-29T03:39:42.877Z,2.88
2023-04-29T03:42:44.190Z,2.92
2023-04-29T03:45:45.681Z,4.05
2023-04-29T03:48:47.205Z,3.70
2023-04-29T03:51:48.479Z,3.53
2023-04-29T03:54:49.936Z,2.63
2023-04-29T03:57:51.203Z,2.70
2023-04-29T04:00:52.528Z,2.85
2023-04-29T04:03:53.973Z,2.65
2023-04-29T04:06:55.464Z,3.03
2023-04-29T04:09:56.770Z,3.28
2023-04-29T04:12:58.032Z,2.88
2023-04-29T04:15:59.362Z,3.42
2023-04-29T04:19:00.712Z,3.72
2023-04-29T04:22:03.188Z,3.45
2023-04-29T04:25:04.689Z,2.67
2023-04-29T04:28:06.509Z,3.15
2023-04-29T04:31:08.094Z,3.20
2023-04-29T04:34:09.504Z,3.50
2023-04-29T04:37:11.840Z,2.75
2023-04-29T04:40:13.770Z,2.53
2023-04-29T04:43:15.017Z,2.63
2023-04-29T04:46:16.900Z,2.60
2023-04-29T04:49:18.254Z,2.50
2023-04-29T04:52:20.345Z,4.10
2023-04-29T04:55:21.847Z,3.38
2023-04-29T04:58:23.136Z,2.78
2023-04-29T05:01:24.490Z,3.15
2023-04-29T05:04:25.911Z,2.55
2023-04-29T05:07:27.300Z,2.65
2023-04-29T05:10:28.593Z,3.00
2023-04-29T05:13:29.932Z,3.28
2023-04-29T05:16:31.304Z,2.63
2023-04-29T05:19:32.594Z,2.25
2023-04-29T05:22:33.883Z,2.33
2023-04-29T05:25:35.199Z,3.15
2023-04-29T05:28:36.532Z,2.30
2023-04-29T05:31:38.543Z,2.33
2023-04-29T05:34:40.348Z,2.08
2023-04-29T05:37:41.598Z,2.22
2023-04-29T05:40:42.875Z,2.90
2023-04-29T05:43:44.163Z,2.85
2023-04-29T05:46:46.469Z,4.25
2023-04-29T05:49:47.963Z,4.20
2023-04-29T05:52:49.227Z,3.05
2023-04-29T05:55:51.248Z,4.60
2023-04-29T05:58:52.791Z,4.50
2023-04-29T06:01:59.565Z,3.88
2023-04-29T06:05:01.597Z,3.83
2023-04-29T06:08:04.320Z,4.38
2023-04-29T06:11:06.094Z,4.30
2023-04-29T06:14:07.364Z,5.10
2023-04-29T06:17:08.753Z,4.43
2023-04-29T06:20:10.298Z,4.97
2023-04-29T06:23:12.258Z,4.50
2023-04-29T06:26:13.974Z,4.57
2023-04-29T06:29:16.476Z,5.40
2023-04-29T06:32:17.822Z,5.43
2023-04-29T06:35:19.251Z,5.38
2023-04-29T06:38:20.536Z,5.45
2023-04-29T06:41:21.832Z,5.07
2023-04-29T06:44:23.432Z,5.65
2023-04-29T06:47:24.730Z,5.95
2023-04-29T06:50:28.910Z,5.53
2023-04-29T06:53:30.322Z,5.88
2023-04-29T06:56:31.814Z,5.50
2023-04-29T06:59:33.065Z,5.80
2023-04-29T07:02:34.893Z,5.03
2023-04-29T07:05:36.635Z,4.50
2023-04-29T07:08:37.982Z,5.22
2023-04-29T07:11:39.400Z,5.03
2023-04-29T07:14:41.328Z,4.47
2023-04-29T07:17:42.653Z,4.47
2023-04-29T07:20:45.710Z,4.32
2023-04-29T07:23:47.743Z,3.88
2023-04-29T07:26:49.014Z,3.90
2023-04-29T07:29:50.396Z,3.88
2023-04-29T07:32:51.798Z,4.03
2023-04-29T07:35:53.160Z,5.07
2023-04-29T07:38:55.307Z,4.07
2023-04-29T07:41:56.588Z,3.78
2023-04-29T07:44:58.173Z,3.55
2023-04-29T07:47:59.497Z,3.97
2023-04-29T07:51:01.593Z,4.15
2023-04-29T07:54:02.895Z,4.43
2023-04-29T07:57:04.666Z,3.85
2023-04-29T08:00:07.169Z,3.10
2023-04-29T08:03:08.622Z,3.30
2023-04-29T08:06:10.291Z,3.65
2023-04-29T08:09:11.776Z,3.95
2023-04-29T08:12:13.082Z,3.00
2023-04-29T08:15:14.642Z,3.38
2023-04-29T08:18:16.318Z,2.50
2023-04-29T08:21:17.654Z,3.03
2023-04-29T08:24:20.506Z,2.80
2023-04-29T08:27:21.923Z,2.70
2023-04-29T08:30:23.171Z,3.58
2023-04-29T08:33:24.472Z,3.83
2023-04-29T08:36:28.462Z,2.72
2023-04-29T08:39:32.970Z,2.65
2023-04-29T08:42:36.322Z,2.35
2023-04-29T08:45:37.997Z,2.50
2023-04-29T08:48:44.969Z,2.70
2023-04-29T08:51:48.661Z,2.88
2023-04-29T08:54:50.744Z,2.83
2023-04-29T08:57:54.417Z,2.78
2023-04-29T09:00:56.436Z,2.15
2023-04-29T09:04:05.153Z,2.47
2023-04-29T09:07:07.451Z,2.55
2023-04-29T09:10:09.217Z,2.38
2023-04-29T09:13:22.686Z,3.03
2023-04-29T09:16:23.961Z,2.47
2023-04-29T09:19:35.272Z,2.40
2023-04-29T09:22:47.768Z,2.78
2023-04-29T09:25:58.229Z,2.55
2023-04-29T09:29:11.201Z,2.75
2023-04-29T09:32:18.783Z,2.33
2023-04-29T09:35:26.772Z,2.53
2023-04-29T09:38:28.129Z,2.97
2023-04-29T09:41:29.638Z,2.40
2023-04-29T09:44:34.439Z,2.00
2023-04-29T09:47:36.056Z,2.10
2023-04-29T09:50:38.302Z,2.33
2023-04-29T09:53:39.669Z,2.80
2023-04-29T09:56:51.740Z,2.05
2023-04-29T09:59:53.078Z,2.30
2023-04-29T10:02:56.495Z,2.30
2023-04-29T10:05:58.542Z,2.15
2023-04-29T10:09:00.528Z,2.53
2023-04-29T10:12:02.492Z,2.17
2023-04-29T10:15:04.172Z,2.17
2023-04-29T10:18:20.185Z,1.95
2023-04-29T10:21:24.838Z,2.90
2023-04-29T10:24:26.886Z,2.33
2023-04-29T10:27:29.306Z,2.50
2023-04-29T10:30:31.090Z,2.15
2023-04-29T10:33:35.648Z,1.92
2023-04-29T10:36:37.307Z,2.88
2023-04-29T10:39:53.863Z,2.95
2023-04-29T10:42:55.601Z,3.47
2023-04-29T10:46:29.121Z,2.78
2023-04-29T10:49:36.218Z,3.67
2023-04-29T10:52:54.632Z,2.83
2023-04-29T10:56:13.899Z,3.10
2023-04-29T10:59:19.079Z,2.50
2023-04-29T11:02:20.899Z,2.95
2023-04-29T11:05:32.088Z,2.60
2023-04-29T11:08:39.896Z,1.92
2023-04-29T11:11:42.238Z,2.45
2023-04-29T11:14:49.193Z,2.17
2023-04-29T11:17:50.687Z,2.53
2023-04-29T11:21:04.108Z,2.20
2023-04-29T11:24:06.492Z,2.00
2023-04-29T11:27:07.938Z,2.10
2023-04-29T11:30:09.428Z,2.05
2023-04-29T11:33:10.772Z,2.05
2023-04-29T11:36:12.360Z,2.03
2023-04-29T11:39:13.633Z,2.22
2023-04-29T11:42:19.169Z,1.73
2023-04-29T11:45:20.614Z,1.90
2023-04-29T11:48:22.952Z,1.58
2023-04-29T11:51:24.229Z,1.90
2023-04-29T11:54:26.367Z,1.88
2023-04-29T11:57:27.632Z,1.90
2023-04-29T12:00:31.132Z,2.28
2023-04-29T12:03:33.719Z,2.50
2023-04-29T12:06:35.277Z,2.20
2023-04-29T12:09:43.702Z,2.10
2023-04-29T12:12:46.184Z,2.03
2023-04-29T12:15:48.708Z,2.22
2023-04-29T12:18:51.130Z,2.10
2023-04-29T12:21:52.506Z,2.30
2023-04-29T12:24:54.617Z,2.70
2023-04-29T12:27:59.499Z,2.72
2023-04-29T12:31:01.817Z,2.50
2023-04-29T12:34:03.754Z,2.20
2023-04-29T12:37:05.038Z,1.98
2023-04-29T12:40:06.819Z,2.50
2023-04-29T12:43:09.116Z,2.40
2023-04-29T12:46:12.691Z,2.00
2023-04-29T12:49:14.507Z,2.15
2023-04-29T12:52:15.854Z,2.17
2023-04-29T12:55:17.176Z,2.13
2023-04-29T12:58:18.567Z,2.30
2023-04-29T13:01:19.930Z,2.20
2023-04-29T13:04:21.304Z,2.08
2023-04-29T13:07:22.650Z,2.10
2023-04-29T13:10:24.034Z,2.25
2023-04-29T13:13:25.450Z,1.85
2023-04-29T13:16:26.776Z,2.28
2023-04-29T13:19:43.260Z,2.35
2023-04-29T13:22:49.252Z,1.90
2023-04-29T13:25:51.103Z,1.80
2023-04-29T13:28:52.521Z,2.05
2023-04-29T13:31:53.867Z,2.00
2023-04-29T13:34:56.283Z,2.30
2023-04-29T13:37:57.701Z,2.45
2023-04-29T13:40:58.991Z,2.50
2023-04-29T13:44:02.063Z,1.83
2023-04-29T13:47:06.218Z,2.40
2023-04-29T13:53:36.294Z,2.60
2023-04-29T13:59:57.443Z,3.00
2023-04-29T14:06:06.288Z,2.20
2023-04-29T14:09:07.757Z,2.22
2023-04-29T14:12:09.068Z,2.10
2023-04-29T14:15:10.690Z,1.80
2023-04-29T14:18:12.162Z,2.00
2023-04-29T14:21:13.693Z,1.95
2023-04-29T14:24:15.090Z,2.13
2023-04-29T14:27:16.345Z,1.95
2023-04-29T14:30:17.643Z,2.00
2023-04-29T14:33:18.991Z,2.05
2023-04-29T14:36:20.482Z,1.83
2023-04-29T14:39:22.426Z,3.15
2023-04-29T14:42:23.708Z,2.38
2023-04-29T14:45:25.007Z,2.40
2023-04-29T14:48:26.422Z,2.05
2023-04-29T14:51:28.189Z,2.28
2023-04-29T14:54:29.496Z,2.75
2023-04-29T14:57:30.821Z,2.42
2023-04-29T15:00:32.181Z,2.13
2023-04-29T15:03:33.552Z,2.20
2023-04-29T15:06:35.256Z,2.75
2023-04-29T15:09:36.706Z,1.98
2023-04-29T15:12:38.128Z,2.08
2023-04-29T15:15:39.487Z,2.15
2023-04-29T15:18:42.050Z,2.35
2023-04-29T15:21:45.536Z,2.22
2023-04-29T15:27:53.748Z,2.33
2023-04-29T15:30:55.238Z,1.77
2023-04-29T15:33:56.607Z,2.08
2023-04-29T15:36:59.842Z,2.15
2023-04-29T15:40:02.834Z,2.05
2023-04-29T15:43:04.223Z,2.47
2023-04-29T15:46:05.560Z,2.22
2023-04-29T15:49:06.919Z,2.22
2023-04-29T15:52:08.453Z,2.58
2023-04-29T15:55:09.799Z,2.42
2023-04-29T15:58:11.079Z,2.25
2023-04-29T16:01:12.436Z,2.13
2023-04-29T16:04:13.805Z,2.25
2023-04-29T16:07:15.150Z,2.53
2023-04-29T16:10:16.409Z,2.22
2023-04-29T16:13:17.716Z,3.00
2023-04-29T16:16:19.150Z,2.58
2023-04-29T16:19:20.495Z,2.63
2023-04-29T16:22:21.843Z,2.55
2023-04-29T16:25:23.125Z,2.83
2023-04-29T16:28:24.510Z,3.03
2023-04-29T16:31:25.866Z,3.53
2023-04-29T16:34:27.298Z,2.25
2023-04-29T16:37:28.715Z,5.63
2023-04-29T16:40:30.095Z,2.67
2023-04-29T16:43:31.395Z,2.22
2023-04-29T16:46:33.366Z,2.90
2023-04-29T16:49:34.710Z,2.90
2023-04-29T16:52:36.041Z,2.35
2023-04-29T16:55:37.291Z,3.33
2023-04-29T16:58:38.673Z,2.95
2023-04-29T17:01:40.145Z,2.20
2023-04-29T17:04:41.712Z,2.13
2023-04-29T17:07:43.041Z,2.05
2023-04-29T17:10:44.868Z,1.65
2023-04-29T17:13:46.357Z,2.78
2023-04-29T17:16:47.679Z,2.30
2023-04-29T17:19:51.493Z,2.30
2023-04-29T17:25:55.444Z,2.13
2023-04-29T17:28:56.993Z,2.67
2023-04-29T17:31:59.567Z,1.75
2023-04-29T17:35:00.924Z,2.10
2023-04-29T17:38:02.256Z,2.05
2023-04-29T17:41:03.768Z,1.95
2023-04-29T17:44:05.297Z,2.17
2023-04-29T17:47:09.218Z,2.28
2023-04-29T17:50:10.675Z,2.30
2023-04-29T17:53:12.251Z,2.00
2023-04-29T17:56:13.593Z,1.58
2023-04-29T17:59:14.911Z,2.15
2023-04-29T18:02:16.375Z,1.40
2023-04-29T18:05:17.702Z,1.50
2023-04-29T18:08:18.930Z,1.63
2023-04-29T18:11:21.075Z,1.42
2023-04-29T18:14:22.397Z,1.67
2023-04-29T18:17:23.743Z,1.67
2023-04-29T18:20:25.482Z,2.20
2023-04-29T18:23:26.803Z,1.67
2023-04-29T18:26:28.861Z,2.13
2023-04-29T18:29:30.128Z,1.77
2023-04-29T18:32:31.509Z,2.55
2023-04-29T18:35:33.385Z,1.83
2023-04-29T18:38:34.820Z,2.03
2023-04-29T18:41:36.445Z,2.00
2023-04-29T18:44:38.852Z,2.05
2023-04-29T18:47:40.390Z,2.85
2023-04-29T18:50:41.892Z,2.60
2023-04-29T18:53:43.466Z,2.05
2023-04-29T18:56:48.564Z,2.03
2023-04-29T18:59:50.701Z,2.15
2023-04-29T19:02:52.082Z,3.58
2023-04-29T19:05:53.436Z,2.88
2023-04-29T19:08:54.828Z,2.97
2023-04-29T19:11:56.224Z,2.58
2023-04-29T19:14:57.534Z,3.13
2023-04-29T19:17:59.000Z,3.13
2023-04-29T19:21:00.355Z,3.22
2023-04-29T19:24:01.779Z,3.85
2023-04-29T19:27:03.968Z,3.08
2023-04-29T19:30:05.895Z,3.33
2023-04-29T19:33:08.530Z,3.65
2023-04-29T19:36:11.550Z,4.57
2023-04-29T19:39:14.437Z,3.60
2023-04-29T19:42:15.918Z,3.38
2023-04-29T19:45:17.298Z,3.92
2023-04-29T19:48:18.656Z,3.45
2023-04-29T19:51:20.997Z,3.78
2023-04-29T19:54:22.287Z,4.47
2023-04-29T19:57:23.549Z,4.28
2023-04-29T20:00:25.049Z,3.90
2023-04-29T20:03:26.877Z,3.92
2023-04-29T20:06:28.858Z,3.95
2023-04-29T20:09:31.581Z,4.18
2023-04-29T20:12:33.148Z,3.67
2023-04-29T20:15:34.626Z,4.00
2023-04-29T20:18:36.142Z,3.78
2023-04-29T20:21:39.668Z,3.85
2023-04-29T20:24:41.530Z,3.60
2023-04-29T20:27:42.911Z,3.75
2023-04-29T20:30:44.214Z,3.80
2023-04-29T20:33:46.015Z,3.90
2023-04-29T20:36:48.315Z,4.75
2023-04-29T20:39:49.574Z,4.22
2023-04-29T20:42:50.954Z,4.15
2023-04-29T20:45:52.274Z,3.80
2023-04-29T20:48:53.701Z,4.00
2023-04-29T20:51:56.101Z,4.28
2023-04-29T20:54:58.611Z,4.07
2023-04-29T20:57:59.946Z,4.15
2023-04-29T21:01:01.331Z,3.92
2023-04-29T21:04:02.658Z,4.43
2023-04-29T21:07:04.556Z,4.18
2023-04-29T21:10:06.458Z,3.85
2023-04-29T21:13:07.812Z,3.97
2023-04-29T21:16:09.949Z,3.80
2023-04-29T21:19:11.321Z,4.05
2023-04-29T21:22:12.665Z,4.35
2023-04-29T21:25:14.010Z,4.10
2023-04-29T21:28:16.941Z,3.83
2023-04-29T21:31:18.421Z,3.65
2023-04-29T21:34:19.805Z,3.70
2023-04-29T21:37:21.100Z,3.78
2023-04-29T21:40:22.764Z,4.60
2023-04-29T21:43:24.077Z,4.10
2023-04-29T21:46:26.878Z,4.25
2023-04-29T21:49:28.226Z,3.97
2023-04-29T21:52:31.290Z,4.18
2023-04-29T21:55:32.566Z,4.30
2023-04-29T21:58:33.893Z,4.32
2023-04-29T22:01:47.182Z,4.50
2023-04-29T22:04:49.181Z,3.75
2023-04-29T22:07:50.595Z,4.03
2023-04-29T22:10:51.898Z,4.38
2023-04-29T22:13:53.225Z,4.07
2023-04-29T22:16:54.621Z,4.40
2023-04-29T22:19:56.133Z,4.57
2023-04-29T22:22:57.819Z,4.28
2023-04-29T22:25:59.095Z,4.15
2023-04-29T22:29:00.428Z,4.75
2023-04-29T22:32:02.013Z,5.35
2023-04-29T22:35:03.660Z,4.47
2023-04-29T22:38:05.161Z,4.55
2023-04-29T22:41:07.832Z,5.40
2023-04-29T22:44:09.121Z,4.63
2023-04-29T22:47:10.462Z,4.60
2023-04-29T22:50:11.859Z,4.38
2023-04-29T22:53:13.150Z,4.43
2023-04-29T22:56:14.453Z,5.07
2023-04-29T22:59:15.702Z,4.55
2023-04-29T23:02:16.991Z,4.25
2023-04-29T23:05:18.275Z,5.15
2023-04-29T23:08:19.511Z,4.97
2023-04-29T23:11:21.902Z,4.90
2023-04-29T23:14:23.179Z,4.10
2023-04-29T23:17:24.488Z,4.43
2023-04-29T23:20:25.863Z,5.18
2023-04-29T23:23:27.110Z,4.25
2023-04-29T23:26:28.407Z,4.43
2023-04-29T23:29:33.884Z,4.38
2023-04-29T23:32:35.198Z,4.28
2023-04-29T23:35:36.695Z,4.45
2023-04-29T23:38:37.943Z,4.57
2023-04-29T23:41:39.214Z,4.38
2023-04-29T23:44:40.742Z,4.80
2023-04-29T23:47:42.070Z,4.57
2023-04-29T23:50:43.538Z,5.93
2023-04-29T23:53:44.796Z,5.25
2023-04-29T23:56:46.079Z,5.28
2023-04-29T23:59:47.410Z,4.30
